Kezdőlap
METAR-TAF:

METAR-TAF

Repülőterek :

Sanikiluaq, Nunavut, Kanada

földrajzi szélesség: 56-32N, földrajzi hosszúság: 079-15W, magasság: 32 m

Jelenlegi meteorológiai megfigyelések

A jelentés 49 perccel ezelõtt készült, 15:00 UTC
Észak-északnyugati szél 27 kt széllökések: 32 kt
Hőmérséklet -12°C
Páratartalom 78%
Légköri nyomás 999 hPa
Látótávolság: 9.7 km
Szakadozott felhőzet 1700 lábon
hófúvás

METAR: CYSK 151500Z 34027G32KT 6SM BLSN BKN017 M12/M15 A2951 RMK SC5 CALL OUT SLP998

Idő: 10:49 (15:49 UTC)


TAF: hiányzik

Meteorológiai megfigyelések és előrejelzések több, mint 4000 repülőtéren (METAR és TAF jelentéseket).

A térképen piros és sárga pontok jelzik az elérhető meteorológiai állomásokat.

Mozgassa az egeret a pont fölött, hogy megjelenjen az állomás neve.

Azután kattintson az időjárási megfigyelések és előrejelzések megtekintéséhez.

A térkép megváltoztatása: kattintson a fekete keresztel jelölt zöld gombra ráközelítéshez, a vonallal jelölt zöld gombra távolításhoz, vagy a zöld nyilakra a szomszédos térképek eléréséhez.


METAR-TAF: